Private Wetterstation Sandau
Wetterdaten: Dienstag, 20.03.2012
Datum Zeit Temp. A. Feuchte A. Luftdruck Regen Wind Richtung Richtung Taupunkt Windchill
20.03.2012 00:02 5,4 C 73 % 1032,6 hPa 0,0 l/m 3,6 km/h (1 Bft) W 270 1,0 C 5,4 C
20.03.2012 00:07 5,3 C 73 % 1032,5 hPa 0,0 l/m 3,2 km/h (1 Bft) W-SW 247 0,9 C 5,3 C
20.03.2012 00:12 5,3 C 73 % 1032,6 hPa 0,0 l/m 8,6 km/h (2 Bft) W-SW 247 0,9 C 3,3 C
20.03.2012 00:17 5,3 C 73 % 1032,5 hPa 0,0 l/m 5,8 km/h (2 Bft) W-SW 247 0,9 C 4,1 C
20.03.2012 00:22 5,3 C 74 % 1032,5 hPa 0,0 l/m 4,3 km/h (1 Bft) W 270 1,0 C 5,3 C
20.03.2012 00:27 5,2 C 74 % 1032,6 hPa 0,0 l/m 6,8 km/h (2 Bft) SW 225 1,0 C 3,7 C
20.03.2012 00:32 5,1 C 74 % 1032,4 hPa 0,0 l/m 3,6 km/h (1 Bft) W 270 0,9 C 5,1 C
20.03.2012 00:37 5,1 C 74 % 1032,6 hPa 0,0 l/m 5,8 km/h (2 Bft) SW 225 0,9 C 3,9 C
20.03.2012 00:42 5,0 C 74 % 1032,6 hPa 0,0 l/m 5,4 km/h (1 Bft) S-SW 202 0,8 C 3,9 C
20.03.2012 00:47 5,0 C 74 % 1032,6 hPa 0,0 l/m 5,0 km/h (1 Bft) W-SW 247 0,8 C 4,1 C
20.03.2012 00:52 4,9 C 75 % 1032,5 hPa 0,0 l/m 14,4 km/h (3 Bft) W-SW 247 0,8 C 1,7 C
20.03.2012 00:57 4,9 C 75 % 1032,5 hPa 0,0 l/m 8,3 km/h (2 Bft) W-SW 247 0,8 C 2,9 C
20.03.2012 01:02 4,9 C 75 % 1032,7 hPa 0,0 l/m 9,7 km/h (2 Bft) SW 225 0,8 C 2,6 C
20.03.2012 01:07 4,9 C 75 % 1032,7 hPa 0,0 l/m 11,9 km/h (2 Bft) W-SW 247 0,8 C 2,2 C
20.03.2012 01:12 4,9 C 75 % 1032,7 hPa 0,0 l/m 5,8 km/h (2 Bft) W-SW 247 0,8 C 3,7 C
20.03.2012 01:17 4,8 C 75 % 1032,7 hPa 0,0 l/m 7,6 km/h (2 Bft) W 270 0,8 C 3,0 C
20.03.2012 01:22 4,8 C 75 % 1032,9 hPa 0,0 l/m 4,3 km/h (1 Bft) SW 225 0,8 C 4,8 C
20.03.2012 01:27 4,8 C 75 % 1033,0 hPa 0,0 l/m 3,6 km/h (1 Bft) W-SW 247 0,8 C 4,8 C
20.03.2012 01:32 4,8 C 75 % 1032,8 hPa 0,0 l/m 5,0 km/h (1 Bft) W-NW 292 0,8 C 3,9 C
20.03.2012 01:37 4,8 C 75 % 1032,8 hPa 0,0 l/m 7,2 km/h (2 Bft) W-SW 247 0,8 C 3,1 C
20.03.2012 01:42 4,7 C 75 % 1032,7 hPa 0,0 l/m 3,6 km/h (1 Bft) W 270 0,7 C 4,7 C
20.03.2012 01:47 4,7 C 76 % 1032,9 hPa 0,0 l/m 11,2 km/h (2 Bft) W-SW 247 0,8 C 2,0 C
20.03.2012 01:52 4,6 C 76 % 1033,0 hPa 0,0 l/m 9,0 km/h (2 Bft) W-SW 247 0,7 C 2,4 C
20.03.2012 01:57 4,6 C 76 % 1032,7 hPa 0,0 l/m 6,5 km/h (2 Bft) SW 225 0,7 C 3,1 C
20.03.2012 02:02 4,6 C 76 % 1032,9 hPa 0,0 l/m 4,3 km/h (1 Bft) SW 225 0,7 C 4,6 C
20.03.2012 02:07 4,6 C 76 % 1032,8 hPa 0,0 l/m 4,7 km/h (1 Bft) W-SW 247 0,7 C 3,8 C
20.03.2012 02:12 4,5 C 76 % 1032,7 hPa 0,0 l/m 6,8 km/h (2 Bft) W 270 0,6 C 2,9 C
20.03.2012 02:17 4,5 C 76 % 1032,8 hPa 0,0 l/m 6,5 km/h (2 Bft) SW 225 0,6 C 3,0 C
20.03.2012 02:22 4,4 C 76 % 1032,8 hPa 0,0 l/m 6,8 km/h (2 Bft) SW 225 0,5 C 2,8 C
20.03.2012 02:27 4,4 C 76 % 1032,6 hPa 0,0 l/m 5,0 km/h (1 Bft) W-SW 247 0,5 C 3,4 C
20.03.2012 02:32 4,3 C 76 % 1032,7 hPa 0,0 l/m 6,8 km/h (2 Bft) W 270 0,5 C 2,7 C
20.03.2012 02:37 4,3 C 77 % 1032,7 hPa 0,0 l/m 7,9 km/h (2 Bft) SW 225 0,6 C 2,3 C
20.03.2012 02:42 4,2 C 77 % 1032,7 hPa 0,0 l/m 10,1 km/h (2 Bft) W-SW 247 0,5 C 1,7 C
20.03.2012 02:47 4,1 C 77 % 1032,7 hPa 0,0 l/m 4,7 km/h (1 Bft) SW 225 0,4 C 3,2 C
20.03.2012 02:52 4,1 C 77 % 1032,7 hPa 0,0 l/m 5,8 km/h (2 Bft) W 270 0,4 C 2,8 C
20.03.2012 02:57 4,1 C 78 % 1032,8 hPa 0,0 l/m 7,6 km/h (2 Bft) SW 225 0,6 C 2,2 C
20.03.2012 03:02 4,1 C 78 % 1032,6 hPa 0,0 l/m 8,6 km/h (2 Bft) SW 225 0,6 C 1,9 C
20.03.2012 03:07 4,1 C 78 % 1032,6 hPa 0,0 l/m 8,6 km/h (2 Bft) W-SW 247 0,6 C 1,9 C
20.03.2012 03:12 4,1 C 78 % 1032,7 hPa 0,0 l/m 9,4 km/h (2 Bft) W-SW 247 0,6 C 1,7 C
20.03.2012 03:17 3,9 C 78 % 1032,7 hPa 0,0 l/m 9,0 km/h (2 Bft) W 270 0,4 C 1,6 C
20.03.2012 03:22 3,9 C 78 % 1032,7 hPa 0,0 l/m 6,8 km/h (2 Bft) W-SW 247 0,4 C 2,2 C
20.03.2012 03:27 3,9 C 78 % 1032,7 hPa 0,0 l/m 7,2 km/h (2 Bft) W 270 0,4 C 2,1 C
20.03.2012 03:32 3,9 C 78 % 1032,7 hPa 0,0 l/m 7,2 km/h (2 Bft) W-SW 247 0,4 C 2,1 C
20.03.2012 03:37 3,9 C 78 % 1032,7 hPa 0,0 l/m 13,0 km/h (3 Bft) SW 225 0,4 C 0,7 C
20.03.2012 03:42 3,8 C 78 % 1032,5 hPa 0,0 l/m 10,4 km/h (2 Bft) W 270 0,3 C 1,1 C
20.03.2012 03:47 3,8 C 78 % 1032,5 hPa 0,0 l/m 10,4 km/h (2 Bft) W-SW 247 0,3 C 1,1 C
20.03.2012 03:52 3,8 C 78 % 1032,6 hPa 0,0 l/m 9,7 km/h (2 Bft) W 270 0,3 C 1,3 C
20.03.2012 03:57 3,8 C 79 % 1032,7 hPa 0,0 l/m 8,3 km/h (2 Bft) W-SW 247 0,5 C 1,6 C
20.03.2012 04:02 3,8 C 79 % 1032,5 hPa 0,0 l/m 11,2 km/h (2 Bft) W-SW 247 0,5 C 1,0 C
20.03.2012 04:07 3,8 C 79 % 1032,6 hPa 0,0 l/m 6,1 km/h (2 Bft) W 270 0,5 C 2,3 C
20.03.2012 04:12 3,8 C 79 % 1032,6 hPa 0,0 l/m 9,4 km/h (2 Bft) W-SW 247 0,5 C 1,4 C
20.03.2012 04:17 3,8 C 79 % 1032,7 hPa 0,0 l/m 11,9 km/h (2 Bft) W-SW 247 0,5 C 0,8 C
20.03.2012 04:22 3,8 C 79 % 1032,7 hPa 0,0 l/m 13,7 km/h (3 Bft) W-SW 247 0,5 C 0,5 C
20.03.2012 04:27 3,8 C 79 % 1032,6 hPa 0,0 l/m 13,3 km/h (3 Bft) W-SW 247 0,5 C 0,6 C
20.03.2012 04:32 3,8 C 79 % 1032,7 hPa 0,0 l/m 10,8 km/h (2 Bft) W-SW 247 0,5 C 1,0 C
20.03.2012 04:37 3,8 C 79 % 1032,8 hPa 0,0 l/m 10,8 km/h (2 Bft) W 270 0,5 C 1,0 C
20.03.2012 04:42 3,8 C 79 % 1032,8 hPa 0,0 l/m 8,6 km/h (2 Bft) W-NW 292 0,5 C 1,6 C
20.03.2012 04:47 3,8 C 79 % 1032,7 hPa 0,0 l/m 9,0 km/h (2 Bft) W 270 0,5 C 1,5 C
20.03.2012 04:52 3,8 C 79 % 1032,5 hPa 0,0 l/m 12,6 km/h (3 Bft) W-SW 247 0,5 C 0,7 C
20.03.2012 04:57 3,8 C 79 % 1032,6 hPa 0,0 l/m 10,1 km/h (2 Bft) W-SW 247 0,5 C 1,2 C
20.03.2012 05:02 3,8 C 79 % 1032,5 hPa 0,0 l/m 12,6 km/h (3 Bft) W-SW 247 0,5 C 0,7 C
20.03.2012 05:07 3,8 C 79 % 1032,6 hPa 0,0 l/m 16,9 km/h (3 Bft) W-SW 247 0,5 C -0,0 C
20.03.2012 05:12 3,8 C 79 % 1032,7 hPa 0,0 l/m 9,0 km/h (2 Bft) W-SW 247 0,5 C 1,5 C
20.03.2012 05:17 3,8 C 79 % 1032,7 hPa 0,0 l/m 6,5 km/h (2 Bft) W-SW 247 0,5 C 2,2 C
20.03.2012 05:22 3,7 C 79 % 1032,6 hPa 0,0 l/m 10,4 km/h (2 Bft) W-SW 247 0,4 C 1,0 C
20.03.2012 05:27 3,6 C 79 % 1032,6 hPa 0,0 l/m 10,1 km/h (2 Bft) W-SW 247 0,3 C 1,0 C
20.03.2012 05:32 3,6 C 79 % 1032,7 hPa 0,0 l/m 6,1 km/h (2 Bft) W-SW 247 0,3 C 2,1 C
20.03.2012 05:37 3,6 C 79 % 1032,6 hPa 0,0 l/m 5,0 km/h (1 Bft) W-SW 247 0,3 C 2,5 C
20.03.2012 05:42 3,6 C 80 % 1032,6 hPa 0,0 l/m 17,3 km/h (3 Bft) W-SW 247 0,5 C -0,3 C
20.03.2012 05:47 3,6 C 80 % 1032,6 hPa 0,0 l/m 10,8 km/h (2 Bft) W-SW 247 0,5 C 0,8 C
20.03.2012 05:52 3,6 C 80 % 1032,6 hPa 0,0 l/m 14,4 km/h (3 Bft) W-SW 247 0,5 C 0,1 C
20.03.2012 05:57 3,5 C 80 % 1032,7 hPa 0,0 l/m 11,2 km/h (2 Bft) W 270 0,4 C 0,6 C
20.03.2012 06:02 3,5 C 80 % 1032,6 hPa 0,0 l/m 12,6 km/h (3 Bft) SW 225 0,4 C 0,3 C
20.03.2012 06:07 3,5 C 80 % 1032,7 hPa 0,0 l/m 12,6 km/h (3 Bft) W-SW 247 0,4 C 0,3 C
20.03.2012 06:12 3,5 C 81 % 1032,6 hPa 0,0 l/m 8,6 km/h (2 Bft) W-SW 247 0,6 C 1,2 C
20.03.2012 06:17 3,4 C 81 % 1032,8 hPa 0,0 l/m 16,2 km/h (3 Bft) W 270 0,5 C -0,4 C
20.03.2012 06:22 3,4 C 81 % 1032,7 hPa 0,0 l/m 5,4 km/h (1 Bft) W 270 0,5 C 2,1 C
20.03.2012 06:27 3,4 C 81 % 1032,7 hPa 0,0 l/m 10,1 km/h (2 Bft) W-NW 292 0,5 C 0,7 C
20.03.2012 06:32 3,4 C 81 % 1032,7 hPa 0,0 l/m 12,6 km/h (3 Bft) W-SW 247 0,5 C 0,2 C
20.03.2012 06:37 3,5 C 82 % 1032,8 hPa 0,0 l/m 7,2 km/h (2 Bft) W 270 0,7 C 1,6 C
20.03.2012 06:42 3,6 C 82 % 1032,8 hPa 0,0 l/m 12,2 km/h (2 Bft) W-SW 247 0,8 C 0,5 C
20.03.2012 06:47 3,7 C 82 % 1032,7 hPa 0,0 l/m 6,5 km/h (2 Bft) W 270 0,9 C 2,1 C
20.03.2012 06:52 3,8 C 82 % 1032,8 hPa 0,0 l/m 7,6 km/h (2 Bft) W-SW 247 1,0 C 1,8 C
20.03.2012 06:57 3,9 C 82 % 1032,8 hPa 0,0 l/m 11,2 km/h (2 Bft) W-SW 247 1,1 C 1,1 C
20.03.2012 07:02 3,9 C 82 % 1032,9 hPa 0,0 l/m 16,6 km/h (3 Bft) W 270 1,1 C 0,1 C
20.03.2012 07:07 3,9 C 82 % 1032,7 hPa 0,0 l/m 14,0 km/h (3 Bft) W-SW 247 1,1 C 0,6 C
20.03.2012 07:12 4,0 C 82 % 1032,6 hPa 0,0 l/m 11,9 km/h (2 Bft) W-SW 247 1,2 C 1,1 C
20.03.2012 07:17 4,1 C 82 % 1032,8 hPa 0,0 l/m 15,8 km/h (3 Bft) W-SW 247 1,3 C 0,5 C
20.03.2012 07:22 4,1 C 82 % 1032,9 hPa 0,0 l/m 17,3 km/h (3 Bft) SW 225 1,3 C 0,3 C
20.03.2012 07:27 4,2 C 82 % 1032,8 hPa 0,0 l/m 9,0 km/h (2 Bft) W 270 1,4 C 1,9 C
20.03.2012 07:32 4,3 C 83 % 1033,0 hPa 0,0 l/m 14,8 km/h (3 Bft) W 270 1,7 C 0,9 C
20.03.2012 07:37 4,4 C 83 % 1033,1 hPa 0,0 l/m 14,4 km/h (3 Bft) W-SW 247 1,8 C 1,1 C
20.03.2012 07:42 4,4 C 83 % 1033,0 hPa 0,0 l/m 9,7 km/h (2 Bft) W-SW 247 1,8 C 2,0 C
20.03.2012 07:47 4,5 C 83 % 1033,1 hPa 0,0 l/m 6,5 km/h (2 Bft) S-SW 202 1,9 C 3,0 C
20.03.2012 07:52 4,6 C 82 % 1033,1 hPa 0,0 l/m 11,9 km/h (2 Bft) W 270 1,8 C 1,8 C
20.03.2012 07:57 4,7 C 82 % 1033,1 hPa 0,0 l/m 7,6 km/h (2 Bft) W-SW 247 1,9 C 2,9 C
20.03.2012 08:02 4,9 C 82 % 1033,2 hPa 0,0 l/m 12,2 km/h (2 Bft) W-SW 247 2,1 C 2,1 C
20.03.2012 08:07 4,9 C 82 % 1033,2 hPa 0,0 l/m 23,8 km/h (4 Bft) W-SW 247 2,1 C 0,5 C
20.03.2012 08:12 5,1 C 82 % 1033,3 hPa 0,0 l/m 11,2 km/h (2 Bft) W 270 2,3 C 2,5 C
20.03.2012 08:17 5,1 C 81 % 1033,2 hPa 0,0 l/m 18,4 km/h (3 Bft) W-SW 247 2,1 C 1,4 C
20.03.2012 08:22 5,2 C 81 % 1033,3 hPa 0,0 l/m 13,3 km/h (3 Bft) W-SW 247 2,2 C 2,3 C
20.03.2012 08:27 5,3 C 80 % 1033,3 hPa 0,0 l/m 13,7 km/h (3 Bft) SW 225 2,1 C 2,3 C
20.03.2012 08:32 5,3 C 80 % 1033,3 hPa 0,0 l/m 25,6 km/h (4 Bft) W-SW 247 2,1 C 0,8 C
20.03.2012 08:37 5,5 C 81 % 1033,4 hPa 0,0 l/m 16,9 km/h (3 Bft) W-SW 247 2,5 C 2,1 C
20.03.2012 08:42 5,6 C 80 % 1033,5 hPa 0,0 l/m 17,6 km/h (3 Bft) W-SW 247 2,4 C 2,1 C
20.03.2012 08:47 5,8 C 80 % 1033,7 hPa 0,0 l/m 18,0 km/h (3 Bft) W-SW 247 2,6 C 2,3 C
20.03.2012 08:52 5,8 C 79 % 1033,4 hPa 0,0 l/m 12,6 km/h (3 Bft) W-SW 247 2,4 C 3,1 C
20.03.2012 08:57 5,9 C 79 % 1033,7 hPa 0,0 l/m 20,9 km/h (4 Bft) W 270 2,5 C 2,1 C
20.03.2012 09:02 6,1 C 80 % 1033,6 hPa 0,0 l/m 20,2 km/h (4 Bft) W-SW 247 2,9 C 2,4 C
20.03.2012 09:07 6,4 C 79 % 1033,7 hPa 0,0 l/m 16,6 km/h (3 Bft) W 270 3,0 C 3,3 C
20.03.2012 09:12 6,7 C 78 % 1033,6 hPa 0,0 l/m 17,3 km/h (3 Bft) W-SW 247 3,1 C 3,5 C
20.03.2012 09:17 6,9 C 78 % 1033,5 hPa 0,0 l/m 8,3 km/h (2 Bft) W-SW 247 3,3 C 5,3 C
20.03.2012 09:22 6,9 C 77 % 1033,6 hPa 0,0 l/m 11,9 km/h (2 Bft) W 270 3,2 C 4,6 C
20.03.2012 09:27 6,9 C 76 % 1033,7 hPa 0,0 l/m 18,4 km/h (3 Bft) W-SW 247 3,0 C 3,6 C
20.03.2012 09:32 6,9 C 76 % 1033,6 hPa 0,0 l/m 13,0 km/h (3 Bft) W-SW 247 3,0 C 4,4 C
20.03.2012 09:37 7,1 C 76 % 1033,7 hPa 0,0 l/m 15,5 km/h (3 Bft) W-SW 247 3,2 C 4,3 C
20.03.2012 09:42 7,3 C 75 % 1033,6 hPa 0,0 l/m 19,4 km/h (3 Bft) W-SW 247 3,2 C 4,0 C
20.03.2012 09:47 7,4 C 75 % 1033,5 hPa 0,0 l/m 18,4 km/h (3 Bft) W-SW 247 3,3 C 4,3 C
20.03.2012 09:52 7,5 C 74 % 1033,6 hPa 0,0 l/m 12,2 km/h (2 Bft) SW 225 3,2 C 5,3 C
20.03.2012 09:57 7,6 C 74 % 1033,6 hPa 0,0 l/m 16,9 km/h (3 Bft) W 270 3,3 C 4,7 C
20.03.2012 10:02 7,7 C 74 % 1033,5 hPa 0,0 l/m 16,6 km/h (3 Bft) W-SW 247 3,4 C 4,9 C
20.03.2012 10:07 7,6 C 73 % 1033,6 hPa 0,0 l/m 16,6 km/h (3 Bft) SW 225 3,1 C 4,7 C
20.03.2012 10:12 7,7 C 73 % 1033,7 hPa 0,0 l/m 10,1 km/h (2 Bft) W-SW 247 3,2 C 5,9 C
20.03.2012 10:17 7,8 C 73 % 1033,5 hPa 0,0 l/m 16,9 km/h (3 Bft) W-SW 247 3,3 C 5,0 C
20.03.2012 10:22 7,8 C 73 % 1033,4 hPa 0,0 l/m 11,9 km/h (2 Bft) W-SW 247 3,3 C 5,7 C
20.03.2012 10:27 7,9 C 72 % 1033,6 hPa 0,0 l/m 20,5 km/h (4 Bft) W-SW 247 3,2 C 4,7 C
20.03.2012 10:32 8,1 C 72 % 1033,6 hPa 0,0 l/m 20,5 km/h (4 Bft) W-SW 247 3,4 C 4,9 C
20.03.2012 10:37 8,2 C 72 % 1033,4 hPa 0,0 l/m 13,7 km/h (3 Bft) W-SW 247 3,5 C 5,9 C
20.03.2012 10:42 8,3 C 72 % 1033,6 hPa 0,0 l/m 11,2 km/h (2 Bft) W 270 3,6 C 6,4 C
20.03.2012 10:47 8,4 C 71 % 1033,5 hPa 0,0 l/m 18,7 km/h (3 Bft) W-SW 247 3,5 C 5,5 C
20.03.2012 10:52 8,6 C 70 % 1033,5 hPa 0,0 l/m 22,7 km/h (4 Bft) W-SW 247 3,4 C 5,3 C
20.03.2012 10:57 8,9 C 70 % 1033,3 hPa 0,0 l/m 15,5 km/h (3 Bft) W-SW 247 3,7 C 6,5 C
20.03.2012 11:02 9,1 C 69 % 1033,3 hPa 0,0 l/m 11,9 km/h (2 Bft) W-SW 247 3,7 C 7,2 C
20.03.2012 11:07 9,3 C 68 % 1033,3 hPa 0,0 l/m 18,7 km/h (3 Bft) W-NW 292 3,7 C 6,6 C
20.03.2012 11:12 9,5 C 68 % 1033,3 hPa 0,0 l/m 27,0 km/h (4 Bft) W-SW 247 3,9 C 6,1 C
20.03.2012 11:17 9,6 C 67 % 1033,4 hPa 0,0 l/m 14,4 km/h (3 Bft) W-SW 247 3,8 C 7,5 C
20.03.2012 11:22 9,8 C 67 % 1033,3 hPa 0,0 l/m 18,0 km/h (3 Bft) W 270 4,0 C 7,3 C
20.03.2012 11:27 9,9 C 65 % 1033,3 hPa 0,0 l/m 26,6 km/h (4 Bft) W-SW 247 3,6 C 6,7 C
20.03.2012 11:32 10,2 C 65 % 1033,4 hPa 0,0 l/m 20,9 km/h (4 Bft) W 270 3,9 C 10,2 C
20.03.2012 11:37 10,4 C 64 % 1033,4 hPa 0,0 l/m 36,4 km/h (5 Bft) W-SW 247 3,9 C 10,4 C
20.03.2012 11:42 10,6 C 63 % 1033,4 hPa 0,0 l/m 26,3 km/h (4 Bft) W-SW 247 3,9 C 10,6 C
20.03.2012 11:47 10,7 C 63 % 1033,3 hPa 0,0 l/m 19,4 km/h (3 Bft) W 270 3,9 C 10,7 C
20.03.2012 11:52 10,6 C 62 % 1033,2 hPa 0,0 l/m 11,9 km/h (2 Bft) W 270 3,6 C 10,6 C
20.03.2012 11:57 10,7 C 62 % 1033,2 hPa 0,0 l/m 11,2 km/h (2 Bft) SW 225 3,7 C 10,7 C
20.03.2012 12:02 10,6 C 62 % 1033,1 hPa 0,0 l/m 25,6 km/h (4 Bft) W-SW 247 3,6 C 10,6 C
20.03.2012 12:07 10,6 C 63 % 1033,3 hPa 0,0 l/m 17,6 km/h (3 Bft) W-SW 247 3,9 C 10,6 C
20.03.2012 12:12 10,7 C 62 % 1033,3 hPa 0,0 l/m 17,3 km/h (3 Bft) W-SW 247 3,7 C 10,7 C
20.03.2012 12:17 10,8 C 62 % 1033,3 hPa 0,0 l/m 19,4 km/h (3 Bft) W 270 3,8 C 10,8 C
20.03.2012 12:22 10,9 C 62 % 1033,4 hPa 0,0 l/m 18,0 km/h (3 Bft) W-NW 292 3,9 C 10,9 C
20.03.2012 12:27 11,1 C 62 % 1033,2 hPa 0,0 l/m 10,4 km/h (2 Bft) W-SW 247 4,1 C 11,1 C
20.03.2012 12:32 11,3 C 61 % 1033,2 hPa 0,0 l/m 12,6 km/h (3 Bft) W 270 4,1 C 11,3 C
20.03.2012 12:37 11,3 C 61 % 1033,1 hPa 0,0 l/m 15,8 km/h (3 Bft) W-NW 292 4,1 C 11,3 C
20.03.2012 12:42 11,3 C 60 % 1033,1 hPa 0,0 l/m 14,4 km/h (3 Bft) W-SW 247 3,8 C 11,3 C
20.03.2012 12:47 11,3 C 61 % 1033,2 hPa 0,0 l/m 8,3 km/h (2 Bft) W-SW 247 4,1 C 11,3 C
20.03.2012 12:52 11,3 C 60 % 1033,1 hPa 0,0 l/m 19,1 km/h (3 Bft) W 270 3,8 C 11,3 C
20.03.2012 12:57 11,3 C 60 % 1033,1 hPa 0,0 l/m 23,0 km/h (4 Bft) W 270 3,8 C 11,3 C
20.03.2012 13:02 11,3 C 60 % 1033,0 hPa 0,0 l/m 20,2 km/h (4 Bft) W-SW 247 3,8 C 11,3 C
20.03.2012 13:07 11,2 C 60 % 1032,9 hPa 0,0 l/m 10,8 km/h (2 Bft) W-SW 247 3,7 C 11,2 C
20.03.2012 13:12 11,3 C 60 % 1032,8 hPa 0,0 l/m 16,9 km/h (3 Bft) W-SW 247 3,8 C 11,3 C
20.03.2012 13:17 11,4 C 59 % 1032,9 hPa 0,0 l/m 15,5 km/h (3 Bft) W-NW 292 3,7 C 11,4 C
20.03.2012 13:22 11,5 C 60 % 1032,8 hPa 0,0 l/m 10,4 km/h (2 Bft) W-SW 247 4,0 C 11,5 C
20.03.2012 13:27 11,6 C 60 % 1032,6 hPa 0,0 l/m 6,5 km/h (2 Bft) W 270 4,1 C 11,6 C
20.03.2012 13:32 11,8 C 59 % 1032,7 hPa 0,0 l/m 14,0 km/h (3 Bft) SW 225 4,1 C 11,8 C
20.03.2012 13:37 11,9 C 59 % 1032,8 hPa 0,0 l/m 20,5 km/h (4 Bft) S-SW 202 4,1 C 11,9 C
20.03.2012 13:42 11,9 C 59 % 1032,6 hPa 0,0 l/m 12,2 km/h (2 Bft) W 270 4,1 C 11,9 C
20.03.2012 13:47 12,0 C 59 % 1032,8 hPa 0,0 l/m 24,1 km/h (4 Bft) W 270 4,2 C 12,0 C
20.03.2012 13:52 12,2 C 59 % 1032,4 hPa 0,0 l/m 16,6 km/h (3 Bft) W 270 4,4 C 12,2 C
20.03.2012 13:57 12,4 C 58 % 1032,5 hPa 0,0 l/m 20,2 km/h (4 Bft) W 270 4,4 C 12,4 C
20.03.2012 14:02 12,8 C 58 % 1032,6 hPa 0,0 l/m 7,2 km/h (2 Bft) SW 225 4,7 C 12,8 C
20.03.2012 14:07 13,1 C 57 % 1032,4 hPa 0,0 l/m 10,4 km/h (2 Bft) W-SW 247 4,8 C 13,1 C
20.03.2012 14:12 13,3 C 56 % 1032,5 hPa 0,0 l/m 30,2 km/h (5 Bft) W-SW 247 4,7 C 13,3 C
20.03.2012 14:17 13,3 C 55 % 1032,4 hPa 0,0 l/m 19,4 km/h (3 Bft) W-NW 292 4,5 C 13,3 C
20.03.2012 14:22 13,1 C 55 % 1032,3 hPa 0,0 l/m 13,7 km/h (3 Bft) W-NW 292 4,3 C 13,1 C
20.03.2012 14:27 13,1 C 55 % 1032,4 hPa 0,0 l/m 18,0 km/h (3 Bft) W-SW 247 4,3 C 13,1 C
20.03.2012 14:32 13,0 C 55 % 1032,3 hPa 0,0 l/m 11,9 km/h (2 Bft) W-SW 247 4,2 C 13,0 C
20.03.2012 14:37 13,1 C 56 % 1032,3 hPa 0,0 l/m 9,0 km/h (2 Bft) SW 225 4,5 C 13,1 C
20.03.2012 14:42 13,1 C 55 % 1032,3 hPa 0,0 l/m 18,4 km/h (3 Bft) W 270 4,3 C 13,1 C
20.03.2012 14:47 13,2 C 55 % 1032,3 hPa 0,0 l/m 11,9 km/h (2 Bft) W-NW 292 4,4 C 13,2 C
20.03.2012 14:52 13,3 C 55 % 1032,4 hPa 0,0 l/m 15,5 km/h (3 Bft) W-NW 292 4,5 C 13,3 C
20.03.2012 14:57 13,4 C 54 % 1032,2 hPa 0,0 l/m 9,4 km/h (2 Bft) NW 315 4,3 C 13,4 C
20.03.2012 15:02 13,6 C 54 % 1032,2 hPa 0,0 l/m 11,5 km/h (2 Bft) W-SW 247 4,5 C 13,6 C
20.03.2012 15:07 13,5 C 54 % 1032,2 hPa 0,0 l/m 13,7 km/h (3 Bft) W-SW 247 4,4 C 13,5 C
20.03.2012 15:12 13,5 C 54 % 1032,2 hPa 0,0 l/m 7,2 km/h (2 Bft) W-NW 292 4,4 C 13,5 C
20.03.2012 15:17 13,6 C 54 % 1032,2 hPa 0,0 l/m 9,0 km/h (2 Bft) W-SW 247 4,5 C 13,6 C
20.03.2012 15:22 13,8 C 53 % 1032,2 hPa 0,0 l/m 14,4 km/h (3 Bft) SW 225 4,4 C 13,8 C
20.03.2012 15:27 13,8 C 53 % 1032,1 hPa 0,0 l/m 16,9 km/h (3 Bft) W-SW 247 4,4 C 13,8 C
20.03.2012 15:32 13,9 C 53 % 1032,2 hPa 0,0 l/m 10,1 km/h (2 Bft) W 270 4,5 C 13,9 C
20.03.2012 15:37 13,9 C 53 % 1032,1 hPa 0,0 l/m 18,4 km/h (3 Bft) W 270 4,5 C 13,9 C
20.03.2012 15:42 14,1 C 52 % 1032,0 hPa 0,0 l/m 13,0 km/h (3 Bft) W 270 4,4 C 14,1 C
20.03.2012 15:47 14,1 C 52 % 1032,1 hPa 0,0 l/m 13,7 km/h (3 Bft) W-NW 292 4,4 C 14,1 C
20.03.2012 15:52 13,9 C 51 % 1032,2 hPa 0,0 l/m 10,1 km/h (2 Bft) N 360 3,9 C 13,9 C
20.03.2012 15:57 13,8 C 52 % 1032,0 hPa 0,0 l/m 7,2 km/h (2 Bft) W-NW 292 4,1 C 13,8 C
20.03.2012 16:02 13,6 C 52 % 1032,1 hPa 0,0 l/m 11,5 km/h (2 Bft) W 270 3,9 C 13,6 C
20.03.2012 16:07 13,5 C 52 % 1032,1 hPa 0,0 l/m 16,2 km/h (3 Bft) NW 315 3,8 C 13,5 C
20.03.2012 16:12 13,4 C 52 % 1032,2 hPa 0,0 l/m 18,0 km/h (3 Bft) W-NW 292 3,7 C 13,4 C
20.03.2012 16:17 13,4 C 53 % 1032,2 hPa 0,0 l/m 14,4 km/h (3 Bft) W-NW 292 4,0 C 13,4 C
20.03.2012 16:22 13,3 C 53 % 1032,2 hPa 0,0 l/m 15,8 km/h (3 Bft) W 270 3,9 C 13,3 C
20.03.2012 16:27 13,2 C 54 % 1032,0 hPa 0,0 l/m 9,4 km/h (2 Bft) W-NW 292 4,1 C 13,2 C
20.03.2012 16:32 13,2 C 54 % 1032,0 hPa 0,0 l/m 10,4 km/h (2 Bft) W 270 4,1 C 13,2 C
20.03.2012 16:37 13,3 C 54 % 1032,1 hPa 0,0 l/m 9,4 km/h (2 Bft) W-SW 247 4,2 C 13,3 C
20.03.2012 16:42 13,5 C 54 % 1032,0 hPa 0,0 l/m 6,5 km/h (2 Bft) W-NW 292 4,4 C 13,5 C
20.03.2012 16:47 13,4 C 53 % 1032,0 hPa 0,0 l/m 13,0 km/h (3 Bft) W 270 4,0 C 13,4 C
20.03.2012 16:52 13,3 C 54 % 1032,0 hPa 0,0 l/m 14,8 km/h (3 Bft) W 270 4,2 C 13,3 C
20.03.2012 16:57 13,3 C 54 % 1032,0 hPa 0,0 l/m 10,1 km/h (2 Bft) W 270 4,2 C 13,3 C
20.03.2012 17:02 13,2 C 54 % 1032,1 hPa 0,0 l/m 14,8 km/h (3 Bft) W 270 4,1 C 13,2 C
20.03.2012 17:07 13,1 C 54 % 1032,1 hPa 0,0 l/m 14,8 km/h (3 Bft) W 270 4,0 C 13,1 C
20.03.2012 17:12 13,0 C 54 % 1032,1 hPa 0,0 l/m 10,1 km/h (2 Bft) W 270 3,9 C 13,0 C
20.03.2012 17:17 12,9 C 54 % 1032,1 hPa 0,0 l/m 7,2 km/h (2 Bft) S 180 3,8 C 12,9 C
20.03.2012 17:22 12,9 C 55 % 1032,2 hPa 0,0 l/m 13,7 km/h (3 Bft) W-NW 292 4,1 C 12,9 C
20.03.2012 17:27 12,8 C 55 % 1032,0 hPa 0,0 l/m 7,2 km/h (2 Bft) W 270 4,0 C 12,8 C
20.03.2012 17:32 12,8 C 55 % 1032,1 hPa 0,0 l/m 9,0 km/h (2 Bft) W 270 4,0 C 12,8 C
20.03.2012 17:37 12,7 C 56 % 1032,0 hPa 0,0 l/m 8,3 km/h (2 Bft) W-NW 292 4,2 C 12,7 C
20.03.2012 17:42 12,6 C 56 % 1032,1 hPa 0,0 l/m 6,8 km/h (2 Bft) W-NW 292 4,1 C 12,6 C
20.03.2012 17:47 12,5 C 56 % 1032,1 hPa 0,0 l/m 9,4 km/h (2 Bft) W 270 4,0 C 12,5 C
20.03.2012 17:52 12,5 C 56 % 1032,2 hPa 0,0 l/m 6,5 km/h (2 Bft) W-SW 247 4,0 C 12,5 C
20.03.2012 17:57 12,4 C 57 % 1032,3 hPa 0,0 l/m 8,6 km/h (2 Bft) SW 225 4,1 C 12,4 C
20.03.2012 18:02 12,3 C 58 % 1032,2 hPa 0,0 l/m 9,7 km/h (2 Bft) W 270 4,3 C 12,3 C
20.03.2012 18:07 12,3 C 58 % 1032,3 hPa 0,0 l/m 8,6 km/h (2 Bft) W-SW 247 4,3 C 12,3 C
20.03.2012 18:12 12,2 C 58 % 1032,3 hPa 0,0 l/m 7,6 km/h (2 Bft) W-SW 247 4,2 C 12,2 C
20.03.2012 18:17 12,1 C 59 % 1032,3 hPa 0,0 l/m 9,4 km/h (2 Bft) W 270 4,3 C 12,1 C
20.03.2012 18:22 12,1 C 59 % 1032,3 hPa 0,0 l/m 13,0 km/h (3 Bft) W-SW 247 4,3 C 12,1 C
20.03.2012 18:27 12,0 C 59 % 1032,5 hPa 0,0 l/m 9,0 km/h (2 Bft) W-SW 247 4,2 C 12,0 C
20.03.2012 18:32 11,9 C 59 % 1032,6 hPa 0,0 l/m 6,5 km/h (2 Bft) W-SW 247 4,1 C 11,9 C
20.03.2012 18:37 11,9 C 60 % 1032,6 hPa 0,0 l/m 5,0 km/h (1 Bft) W 270 4,4 C 11,9 C
20.03.2012 18:42 11,9 C 60 % 1032,7 hPa 0,0 l/m 4,3 km/h (1 Bft) W 270 4,4 C 11,9 C
20.03.2012 18:47 11,8 C 61 % 1032,7 hPa 0,0 l/m 6,5 km/h (2 Bft) W 270 4,5 C 11,8 C
20.03.2012 18:52 11,8 C 61 % 1032,7 hPa 0,0 l/m 5,0 km/h (1 Bft) SW 225 4,5 C 11,8 C
20.03.2012 18:57 11,7 C 61 % 1032,8 hPa 0,0 l/m 6,5 km/h (2 Bft) W-SW 247 4,4 C 11,7 C
20.03.2012 19:02 11,6 C 62 % 1033,0 hPa 0,0 l/m 4,0 km/h (1 Bft) W 270 4,6 C 11,6 C
20.03.2012 19:07 11,6 C 62 % 1032,8 hPa 0,0 l/m 7,2 km/h (2 Bft) W-SW 247 4,6 C 11,6 C
20.03.2012 19:12 11,6 C 63 % 1032,8 hPa 0,0 l/m 3,6 km/h (1 Bft) W-NW 292 4,8 C 11,6 C
20.03.2012 19:17 11,5 C 63 % 1032,8 hPa 0,0 l/m 3,2 km/h (1 Bft) W-NW 292 4,7 C 11,5 C
20.03.2012 19:22 11,4 C 64 % 1033,0 hPa 0,0 l/m 4,3 km/h (1 Bft) W 270 4,8 C 11,4 C
20.03.2012 19:27 11,3 C 65 % 1033,0 hPa 0,0 l/m 2,9 km/h (1 Bft) W 270 5,0 C 11,3 C
20.03.2012 19:32 11,3 C 65 % 1033,1 hPa 0,0 l/m 1,8 km/h (1 Bft) W 270 5,0 C 11,3 C
20.03.2012 19:37 11,2 C 66 % 1033,1 hPa 0,0 l/m 2,2 km/h (1 Bft) W-NW 292 5,1 C 11,2 C
20.03.2012 19:42 11,1 C 66 % 1033,4 hPa 0,0 l/m 3,6 km/h (1 Bft) W-NW 292 5,0 C 11,1 C
20.03.2012 19:47 11,1 C 66 % 1033,4 hPa 0,0 l/m 5,8 km/h (2 Bft) W-NW 292 5,0 C 11,1 C
20.03.2012 19:52 11,0 C 66 % 1033,4 hPa 0,0 l/m 5,0 km/h (1 Bft) W 270 4,9 C 11,0 C
20.03.2012 19:57 11,0 C 66 % 1033,3 hPa 0,0 l/m 5,4 km/h (1 Bft) W-SW 247 4,9 C 11,0 C
20.03.2012 20:02 11,0 C 66 % 1033,4 hPa 0,0 l/m 5,0 km/h (1 Bft) W-NW 292 4,9 C 11,0 C
20.03.2012 20:07 11,0 C 66 % 1033,6 hPa 0,0 l/m 5,4 km/h (1 Bft) W 270 4,9 C 11,0 C
20.03.2012 20:12 11,0 C 66 % 1033,4 hPa 0,0 l/m 12,2 km/h (2 Bft) W-NW 292 4,9 C 11,0 C
20.03.2012 20:17 11,0 C 66 % 1033,5 hPa 0,0 l/m 4,3 km/h (1 Bft) W-SW 247 4,9 C 11,0 C
20.03.2012 20:22 11,0 C 66 % 1033,6 hPa 0,0 l/m 7,6 km/h (2 Bft) W 270 4,9 C 11,0 C
20.03.2012 20:27 11,1 C 66 % 1033,6 hPa 0,0 l/m 7,9 km/h (2 Bft) S 180 5,0 C 11,1 C
20.03.2012 20:32 11,1 C 66 % 1033,6 hPa 0,0 l/m 4,7 km/h (1 Bft) W-SW 247 5,0 C 11,1 C
20.03.2012 20:37 11,1 C 66 % 1033,5 hPa 0,0 l/m 5,8 km/h (2 Bft) W-SW 247 5,0 C 11,1 C
20.03.2012 20:42 11,1 C 66 % 1033,6 hPa 0,0 l/m 8,6 km/h (2 Bft) W-NW 292 5,0 C 11,1 C
20.03.2012 20:47 11,1 C 66 % 1033,6 hPa 0,0 l/m 10,4 km/h (2 Bft) W 270 5,0 C 11,1 C
20.03.2012 20:52 11,0 C 66 % 1033,6 hPa 0,0 l/m 4,7 km/h (1 Bft) S-SW 202 4,9 C 11,0 C
20.03.2012 20:57 11,0 C 66 % 1033,5 hPa 0,0 l/m 16,6 km/h (3 Bft) W 270 4,9 C 11,0 C
20.03.2012 21:02 11,0 C 67 % 1033,6 hPa 0,0 l/m 8,3 km/h (2 Bft) W 270 5,1 C 11,0 C
20.03.2012 21:07 10,9 C 67 % 1033,3 hPa 0,0 l/m 17,6 km/h (3 Bft) W-NW 292 5,0 C 10,9 C
20.03.2012 21:12 10,9 C 67 % 1033,6 hPa 0,0 l/m 7,2 km/h (2 Bft) W 270 5,0 C 10,9 C
20.03.2012 21:17 10,9 C 67 % 1033,6 hPa 0,0 l/m 6,5 km/h (2 Bft) W-SW 247 5,0 C 10,9 C
20.03.2012 21:22 10,9 C 67 % 1033,6 hPa 0,0 l/m 4,3 km/h (1 Bft) W 270 5,0 C 10,9 C
20.03.2012 21:27 10,9 C 68 % 1033,7 hPa 0,0 l/m 7,6 km/h (2 Bft) N-NW 337 5,2 C 10,9 C
20.03.2012 21:32 10,9 C 68 % 1033,5 hPa 0,0 l/m 13,0 km/h (3 Bft) W 270 5,2 C 10,9 C
20.03.2012 21:37 10,9 C 68 % 1033,5 hPa 0,0 l/m 7,6 km/h (2 Bft) W-SW 247 5,2 C 10,9 C
20.03.2012 21:42 10,9 C 68 % 1033,5 hPa 0,0 l/m 7,2 km/h (2 Bft) W 270 5,2 C 10,9 C
20.03.2012 21:47 10,9 C 68 % 1033,6 hPa 0,0 l/m 12,2 km/h (2 Bft) W-NW 292 5,2 C 10,9 C
20.03.2012 21:52 10,8 C 68 % 1033,6 hPa 0,0 l/m 3,2 km/h (1 Bft) W 270 5,1 C 10,8 C
20.03.2012 21:57 10,8 C 68 % 1033,7 hPa 0,0 l/m 3,6 km/h (1 Bft) W-SW 247 5,1 C 10,8 C
20.03.2012 22:02 10,8 C 68 % 1033,8 hPa 0,0 l/m 7,9 km/h (2 Bft) W 270 5,1 C 10,8 C
20.03.2012 22:07 10,8 C 68 % 1033,6 hPa 0,0 l/m 14,4 km/h (3 Bft) W-SW 247 5,1 C 10,8 C
20.03.2012 22:12 10,8 C 68 % 1033,6 hPa 0,0 l/m 3,2 km/h (1 Bft) W 270 5,1 C 10,8 C
20.03.2012 22:17 10,8 C 68 % 1033,8 hPa 0,0 l/m 12,2 km/h (2 Bft) W 270 5,1 C 10,8 C
20.03.2012 22:22 10,8 C 68 % 1033,9 hPa 0,0 l/m 7,2 km/h (2 Bft) W 270 5,1 C 10,8 C
20.03.2012 22:27 10,8 C 69 % 1033,8 hPa 0,0 l/m 4,3 km/h (1 Bft) W 270 5,3 C 10,8 C
20.03.2012 22:32 10,8 C 69 % 1033,8 hPa 0,0 l/m 8,3 km/h (2 Bft) W 270 5,3 C 10,8 C
20.03.2012 22:37 10,8 C 69 % 1033,7 hPa 0,0 l/m 9,7 km/h (2 Bft) W-NW 292 5,3 C 10,8 C
20.03.2012 22:42 10,7 C 69 % 1033,9 hPa 0,0 l/m 5,8 km/h (2 Bft) S-SW 202 5,2 C 10,7 C
20.03.2012 22:47 10,7 C 69 % 1033,9 hPa 0,0 l/m 5,8 km/h (2 Bft) W-SW 247 5,2 C 10,7 C
20.03.2012 22:52 10,7 C 69 % 1033,7 hPa 0,0 l/m 3,6 km/h (1 Bft) W 270 5,2 C 10,7 C
20.03.2012 22:57 10,7 C 69 % 1033,9 hPa 0,0 l/m 6,1 km/h (2 Bft) W 270 5,2 C 10,7 C
20.03.2012 23:02 10,6 C 69 % 1033,7 hPa 0,0 l/m 6,1 km/h (2 Bft) SW 225 5,2 C 10,6 C
20.03.2012 23:07 10,6 C 69 % 1033,8 hPa 0,0 l/m 6,1 km/h (2 Bft) W 270 5,2 C 10,6 C
20.03.2012 23:12 10,6 C 69 % 1033,9 hPa 0,0 l/m 9,0 km/h (2 Bft) W-SW 247 5,2 C 10,6 C
20.03.2012 23:17 10,6 C 69 % 1033,7 hPa 0,0 l/m 8,3 km/h (2 Bft) W-SW 247 5,2 C 10,6 C
20.03.2012 23:22 10,6 C 69 % 1033,7 hPa 0,0 l/m 4,0 km/h (1 Bft) W 270 5,2 C 10,6 C
20.03.2012 23:27 10,6 C 69 % 1033,7 hPa 0,0 l/m 4,0 km/h (1 Bft) W-NW 292 5,2 C 10,6 C
20.03.2012 23:32 10,6 C 69 % 1033,9 hPa 0,0 l/m 4,0 km/h (1 Bft) W 270 5,2 C 10,6 C
20.03.2012 23:37 10,6 C 69 % 1033,8 hPa 0,0 l/m 9,7 km/h (2 Bft) W-NW 292 5,2 C 10,6 C
20.03.2012 23:42 10,6 C 69 % 1033,8 hPa 0,0 l/m 5,4 km/h (1 Bft) W 270 5,2 C 10,6 C
20.03.2012 23:47 10,6 C 69 % 1033,8 hPa 0,0 l/m 9,0 km/h (2 Bft) W-NW 292 5,2 C 10,6 C
20.03.2012 23:52 10,5 C 69 % 1033,8 hPa 0,0 l/m 6,1 km/h (2 Bft) W 270 5,1 C 10,5 C
20.03.2012 23:57 10,5 C 70 % 1033,9 hPa 0,0 l/m 9,7 km/h (2 Bft) W-SW 247 5,3 C 10,5 C
_ Min-Zeit 06:17 15:52 15:42 - 19:32 - - 05:27 06:17
Minimum _ 3,4 C 51 % 1032,0 hPa - 1,8 km/h (1 Bft) - - 0,3 C -0,4 C
_ Max-Zeit 15:42 07:32 22:22 00:02 11:37 - - 22:27 15:42
Maximum _ 14,1 C 83 % 1033,9 hPa 0,0 l/m 36,4 km/h
W-SW (5 Bft)
- - 5,3 C 14,1 C
Durchschnitt _ 8,6 C 69 % 1032,9 hPa #0,0 l/m 11,1 km/h (2 Bft) W-SW - 3,0 C 7,5 C
(c) by David Heller